New Castle Airport
KILG : now visible

Airfield :











YOU CAN JOIN US ON...

 
LOGIN :

Register | Disclaimer

   EN    FR    IT 

 









Legend :    VFR   Marginal VFR   IFR   Intensive IFR   Very Intensive IFR
Visi :
Ceiling :
>= 8 km
>= 3000ft
5 to 8 km
1000 to 3000 ft
1500m to 5 km
500 to 1000 ft
800 to 1500m
200 to 500 ft
< 800m
< 200 ft
Symbols :   Thunderstorms  Fog  Heavy snow  Heavy precipitations  Wind > 20 kt






- Airport Elevation : 80 ft
- IATA code : ILG


KILG - New Castle

CURRENT METAR :
  • 011751Z 36009KT 10SM BKN050 13/M01 A2979 RMK AO2 SLP087 T01281011 10133 20050 58014

EXPIRED METARs :
  • 011651Z 02009KT 10SM SCT049 12/M01 A2981 RMK AO2 SLP093 T01171011
  • 011551Z 36014KT 10SM BKN045 11/M01 A2982 RMK AO2 SLP098 T01111011 $

TAF KILG
Valid from the 01 at 18:00 until the 02 at 18:00 UTC


011721Z 0118/0218 01009KT P6SM SCT070
FM012000 34009KT P6SM SCT090
FM020300 34010KT P6SM FEW250
FM020800 32011KT P6SM SKC
FM021500 33016G25KT P6SM FEW080



MET'MAP, your aeronautical weather chart ! - Copyright ORBIFLY December 2007 - Disclaimer

ORBIFLY MET'MAP TEAM :

Programming & Development : Alexandra Zaïnal
Concept & original design : Baudouin d'Aumeries
Assistance for programming : Marc-Olivier Méhu
Technical & hardware support : Manuel Goepfert

Contact : metmap@orbifly.com




SOURCES & CREDITS :

   NOAA       Earth
Advisory